Sunday, November 19, 2017, 11:14 PM EST
Back to Local

KMFV, Melfa / Accomack Airport

Location: Melfa, VA, United States Lat: 37.65
Local Time: 11:14 PM EST ( 4:14 GMT) Lon: -75.767
Time Zone: US/Eastern Elev: 49 ft

Show me the last for .
Show Decoded

2017-11-19 22:50 METAR KMFV 200350Z AUTO 30012G19KT 10SM SCT055 08/M02 A2996 RMK AO2 T00821025 =
2017-11-19 22:30 METAR KMFV 200330Z AUTO 30012KT 10SM SCT055 08/M02 A2996 RMK AO2 T00801018 =
2017-11-19 22:10 METAR KMFV 200310Z AUTO 31010G14KT 10SM SCT055 08/M02 A2995 RMK AO2 T00781020 =
2017-11-19 21:50 METAR KMFV 200250Z AUTO 32011G21KT 10SM CLR 09/M04 A2994 RMK AO2 T00851036 =
2017-11-19 21:30 METAR KMFV 200230Z AUTO 31013G22KT 10SM CLR 09/M03 A2993 RMK AO2 T00861032 =
2017-11-19 21:10 METAR KMFV 200210Z AUTO 31017G22KT 10SM SCT075 09/M03 A2993 RMK AO2 T00851026 =
2017-11-19 20:50 METAR KMFV 200150Z AUTO 32014G20KT 10SM BKN075 08/M02 A2992 RMK AO2 T00841024 =
2017-11-19 20:30 METAR KMFV 200130Z AUTO 32011G23KT 10SM OVC075 09/M03 A2991 RMK AO2 T00901030 =
2017-11-19 20:10 METAR KMFV 200110Z AUTO 32014G24KT 10SM OVC075 09/M03 A2991 RMK AO2 T00901028 =
2017-11-19 19:50 METAR KMFV 200050Z AUTO 32012G24KT 10SM OVC075 09/M03 A2989 RMK AO2 T00901028 =
2017-11-19 19:30 METAR KMFV 200030Z AUTO 34010G24KT 300V010 10SM OVC075 09/M03 A2989 RMK AO2
                 T00911027 =
2017-11-19 19:10 METAR KMFV 200010Z AUTO 32016G26KT 10SM BKN075 09/M02 A2988 RMK AO2 T00891017 =
2017-11-19 18:50 METAR KMFV 192350Z AUTO 32013G22KT 10SM BKN075 09/M01 A2987 RMK AO2 T00871007
                 10137 20087 =
2017-11-19 18:30 METAR KMFV 192330Z AUTO 33011G18KT 10SM CLR 09/00 A2986 RMK AO2 T00881003 =
2017-11-19 18:10 METAR KMFV 192310Z AUTO 33010G21KT 10SM CLR 09/00 A2984 RMK AO2 T00911001 =
2017-11-19 17:50 METAR KMFV 192250Z AUTO 34012G23KT 10SM SCT070 09/01 A2983 RMK AO2 T00930007 =
2017-11-19 17:30 METAR KMFV 192230Z AUTO 33009G19KT 280V010 10SM SCT070 10/01 A2981 RMK AO2
                 T00960006 =
2017-11-19 17:10 METAR KMFV 192210Z AUTO 33013G18KT 290V350 10SM CLR 10/01 A2980 RMK AO2
                 T00990011 =
2017-11-19 16:50 METAR KMFV 192150Z AUTO 33010G17KT 10SM CLR 10/01 A2978 RMK AO2 T01000007 =
2017-11-19 16:30 METAR KMFV 192130Z AUTO 32011G19KT 10SM CLR 10/02 A2977 RMK AO2 T01030021 =
2017-11-19 16:10 METAR KMFV 192110Z AUTO 34009G21KT 10SM CLR 11/02 A2975 RMK AO2 T01100018 =
2017-11-19 15:50 METAR KMFV 192050Z AUTO 33014G24KT 10SM CLR 12/00 A2974 RMK AO2 T01200004 =
2017-11-19 15:30 METAR KMFV 192030Z AUTO 31018G25KT 10SM CLR 13/01 A2973 RMK AO2 T01250008 =
2017-11-19 15:10 METAR KMFV 192010Z AUTO 32009G24KT 10SM CLR 13/01 A2971 RMK AO2 T01270011 =
2017-11-19 14:50 METAR KMFV 191950Z AUTO 33012G23KT 10SM CLR 13/01 A2971 RMK AO2 T01310012 =
2017-11-19 14:30 METAR KMFV 191930Z AUTO 32016G23KT 300V360 10SM CLR 13/01 A2970 RMK AO2
                 T01320007 =
2017-11-19 14:10 METAR KMFV 191910Z AUTO 32015G23KT 10SM CLR 13/02 A2970 RMK AO2 T01320015 =
2017-11-19 13:50 METAR KMFV 191850Z AUTO 31023G30KT 10SM CLR 13/01 A2970 RMK AO2 T01320011 =
2017-11-19 13:30 METAR KMFV 191830Z AUTO 31015G27KT 10SM CLR 13/01 A2969 RMK AO2 T01340013 =
2017-11-19 13:10 METAR KMFV 191810Z AUTO 33011G22KT 300V360 10SM CLR 14/02 A2969 RMK AO2
                 T01360017 =
2017-11-19 12:50 METAR KMFV 191750Z AUTO 32017G28KT 10SM CLR 13/02 A2969 RMK AO2 T01320019 10155
                 20128 =
2017-11-19 12:30 METAR KMFV 191730Z AUTO 31020G28KT 10SM CLR 14/02 A2969 RMK AO2 T01350023 =
2017-11-19 12:10 METAR KMFV 191710Z AUTO 31017G31KT 10SM CLR 13/03 A2968 RMK AO2 T01330025 =
2017-11-19 11:50 METAR KMFV 191650Z AUTO 32017G30KT 10SM CLR 13/02 A2969 RMK AO2 T01310022 =
2017-11-19 11:30 METAR KMFV 191630Z AUTO 31015G27KT 290V360 10SM CLR 13/03 A2968 RMK AO2
                 T01340025 =
2017-11-19 11:10 METAR KMFV 191610Z AUTO 31026G34KT 10SM CLR 13/02 A2969 RMK AO2 T01310024 =
2017-11-19 10:50 METAR KMFV 191550Z AUTO 31024G31KT 10SM CLR 13/02 A2968 RMK AO2 T01330024 =
2017-11-19 10:30 METAR KMFV 191530Z AUTO 32017G29KT 10SM CLR 13/03 A2968 RMK AO2 T01330026 =
2017-11-19 10:10 METAR KMFV 191510Z AUTO 31019G26KT 10SM CLR 13/03 A2967 RMK AO2 T01330033 =
2017-11-19 09:50 METAR KMFV 191450Z AUTO 32018G29KT 10SM CLR 13/03 A2966 RMK AO2 LTG DSNT S
                 T01300028 =
2017-11-19 09:30 METAR KMFV 191430Z AUTO 32017G35KT 10SM CLR 13/03 A2965 RMK AO2 T01300025 =
2017-11-19 09:10 METAR KMFV 191410Z AUTO 31023G34KT 10SM CLR 13/03 A2964 RMK AO2 T01310032 =
2017-11-19 08:50 METAR KMFV 191350Z AUTO 31019G27KT 10SM CLR 14/05 A2962 RMK AO2 T01370053 =
2017-11-19 08:30 METAR KMFV 191330Z AUTO 31025G37KT 10SM SCT055 14/05 A2960 RMK AO2 T01350051 =
2017-11-19 08:10 METAR KMFV 191310Z AUTO 31018G36KT 10SM SCT028 SCT038 BKN055 13/06 A2958 RMK AO2
                 T01340062 =
2017-11-19 07:50 METAR KMFV 191250Z AUTO 30018G26KT 270V340 10SM SCT023 BKN028 OVC040 16/13 A2955
                 RMK AO2 LTG DSNT SE T01550127 =
2017-11-19 07:30 METAR KMFV 191230Z AUTO 26013G22KT 10SM SCT027 BKN044 OVC075 16/14 A2952 RMK AO2
                 T01550137 =
2017-11-19 07:10 METAR KMFV 191210Z AUTO 24012G23KT 10SM SCT012 SCT024 BKN060 16/14 A2950 RMK AO2
                 T01550140 =
2017-11-19 06:50 METAR KMFV 191150Z AUTO 24012G23KT 10SM SCT012 BKN022 OVC060 16/14 A2950 RMK AO2
                 P0003 60006 70006 T01550142 10189 20155 =
2017-11-19 06:30 METAR KMFV 191130Z AUTO 24013G25KT 10SM -RA SCT012 BKN055 OVC100 16/14 A2948 RMK
                 AO2 P0003 T01550142 =
2017-11-19 06:10 METAR KMFV 191110Z AUTO 23017G26KT 10SM RA SCT055 SCT080 OVC100 16/14 A2947 RMK
                 AO2 P0001 T01550140 =
2017-11-19 05:50 METAR KMFV 191050Z AUTO 23015G26KT 10SM -RA SCT080 OVC100 16/14 A2946 RMK AO2
                 P0003 T01560137 =
2017-11-19 05:30 METAR KMFV 191030Z AUTO 23013G18KT 10SM -RA BKN090 OVC120 16/13 A2946 RMK AO2
                 T01610132 =
2017-11-19 05:10 METAR KMFV 191010Z AUTO 23011G19KT 10SM BKN100 BKN120 16/13 A2946 RMK AO2
                 T01640132 =
2017-11-19 04:50 METAR KMFV 190950Z AUTO 22016G26KT 10SM -RA SCT070 BKN090 OVC110 17/13 A2945 RMK
                 AO2 T01650133 =
2017-11-19 04:30 METAR KMFV 190930Z AUTO 21017G27KT 10SM RA SCT042 BKN060 OVC080 17/13 A2945 RMK
                 AO2 T01720127 =
2017-11-19 04:10 METAR KMFV 190910Z AUTO 22018G27KT 10SM BKN042 OVC070 19/12 A2945 RMK AO2
                 T01880117 =
2017-11-19 03:50 METAR KMFV 190850Z AUTO 21014G29KT 10SM OVC065 19/12 A2944 RMK AO2 T01860117 =
2017-11-19 03:30 METAR KMFV 190830Z AUTO 20014G20KT 10SM BKN065 BKN075 BKN090 18/12 A2945 RMK AO2
                 T01750118 =
2017-11-19 03:10 METAR KMFV 190810Z AUTO 20016G21KT 10SM SCT055 SCT075 SCT090 17/12 A2945 RMK AO2
                 T01730118 =
2017-11-19 02:50 METAR KMFV 190750Z AUTO 19014G17KT 10SM SCT065 SCT075 17/12 A2947 RMK AO2
                 T01720120 =
2017-11-19 02:30 METAR KMFV 190730Z AUTO 18011G20KT 10SM SCT065 17/12 A2948 RMK AO2 T01700120 =
2017-11-19 02:10 METAR KMFV 190710Z AUTO 18013G21KT 10SM BKN065 17/12 A2949 RMK AO2 T01720121 =
2017-11-19 01:50 METAR KMFV 190650Z AUTO 18012G19KT 10SM SCT065 17/13 A2951 RMK AO2 T01720125 =
2017-11-19 01:30 METAR KMFV 190630Z AUTO 20013G24KT 10SM CLR 17/13 A2952 RMK AO2 T01710126 =
2017-11-19 01:10 METAR KMFV 190610Z AUTO 19018G27KT 10SM CLR 17/13 A2951 RMK AO2 T01720127 =
2017-11-19 00:50 METAR KMFV 190550Z AUTO 19014G24KT 10SM CLR 17/13 A2952 RMK AO2 T01730128 10175
                 20149 =
2017-11-19 00:30 METAR KMFV 190530Z AUTO 19015G25KT 10SM CLR 17/13 A2953 RMK AO2 T01710130 =
2017-11-19 00:10 METAR KMFV 190510Z AUTO 18017G24KT 10SM CLR 17/13 A2953 RMK AO2 T01680130 =
2017-11-18 23:50 METAR KMFV 190450Z AUTO 19014G21KT 10SM CLR 17/13 A2957 RMK AO2 T01670130
                 401750004 =
2017-11-18 23:30 METAR KMFV 190430Z AUTO 19014G22KT 10SM CLR 17/13 A2958 RMK AO2 T01680130 =

Support USWX by starting your Amazon purchase here.